createdAt,value
2023-02-03T00:03:15.215Z,14.99
2023-02-03T00:08:29.606Z,15.02
2023-02-03T00:13:43.958Z,15.02
2023-02-03T00:16:11.226Z,15.03
2023-02-03T00:18:39.240Z,15.02
2023-02-03T00:21:06.452Z,15.01
2023-02-03T00:23:33.628Z,15.02
2023-02-03T00:26:00.835Z,14.99
2023-02-03T00:28:28.285Z,15.02
2023-02-03T00:30:55.489Z,15.02
2023-02-03T00:33:22.696Z,15.03
2023-02-03T00:35:49.893Z,15.02
2023-02-03T00:38:17.112Z,15.01
2023-02-03T00:40:44.302Z,15.02
2023-02-03T00:43:11.489Z,15.03
2023-02-03T00:45:38.748Z,15.03
2023-02-03T00:48:06.461Z,14.99
2023-02-03T00:50:33.775Z,14.97
2023-02-03T00:53:01.026Z,14.99
2023-02-03T00:55:30.832Z,14.99
2023-02-03T01:00:45.903Z,15.00
2023-02-03T01:03:14.574Z,14.96
2023-02-03T01:05:41.931Z,14.97
2023-02-03T01:08:09.110Z,14.95
2023-02-03T01:10:36.300Z,14.94
2023-02-03T01:13:03.617Z,14.94
2023-02-03T01:15:30.915Z,14.95
2023-02-03T01:20:45.339Z,14.97
2023-02-03T01:23:12.555Z,14.96
2023-02-03T01:25:39.783Z,14.94
2023-02-03T01:28:07.195Z,14.96
2023-02-03T01:30:34.801Z,14.95
2023-02-03T01:33:02.084Z,14.91
2023-02-03T01:35:29.286Z,14.92
2023-02-03T01:37:56.585Z,14.93
2023-02-03T01:40:23.855Z,14.92
2023-02-03T01:42:51.153Z,14.89
2023-02-03T01:45:18.403Z,14.90
2023-02-03T01:47:45.738Z,14.93
2023-02-03T01:50:12.925Z,14.88
2023-02-03T01:52:40.129Z,14.83
2023-02-03T01:57:54.497Z,14.77
2023-02-03T02:00:21.689Z,14.76
2023-02-03T02:02:49.036Z,14.74
2023-02-03T02:05:16.541Z,14.72
2023-02-03T02:07:44.029Z,14.73
2023-02-03T02:10:11.441Z,14.68
2023-02-03T02:12:38.691Z,14.70
2023-02-03T02:15:06.074Z,14.70
2023-02-03T02:17:33.512Z,14.69
2023-02-03T02:22:28.714Z,14.67
2023-02-03T02:24:56.158Z,14.65
2023-02-03T02:27:23.409Z,14.65
2023-02-03T02:29:50.642Z,14.64
2023-02-03T02:32:17.851Z,14.64
2023-02-03T02:34:45.199Z,14.64
2023-02-03T02:37:12.392Z,14.62
2023-02-03T02:39:39.647Z,14.62
2023-02-03T02:42:06.831Z,14.60
2023-02-03T02:44:34.054Z,14.61
2023-02-03T02:47:01.331Z,14.61
2023-02-03T02:49:28.733Z,14.59
2023-02-03T02:51:56.120Z,14.58
2023-02-03T02:54:23.314Z,14.56
2023-02-03T02:56:50.539Z,14.54
2023-02-03T02:59:17.863Z,14.57
2023-02-03T03:01:45.109Z,14.56
2023-02-03T03:04:12.622Z,14.54
2023-02-03T03:06:39.950Z,14.52
2023-02-03T03:09:07.215Z,14.53
2023-02-03T03:11:34.446Z,14.51
2023-02-03T03:14:01.653Z,14.51
2023-02-03T03:16:28.891Z,14.52
2023-02-03T03:18:56.136Z,14.50
2023-02-03T03:21:23.326Z,14.50
2023-02-03T03:23:50.513Z,14.47
2023-02-03T03:26:17.695Z,14.48
2023-02-03T03:31:32.166Z,14.46
2023-02-03T03:33:59.561Z,14.45
2023-02-03T03:36:26.934Z,14.45
2023-02-03T03:38:54.170Z,14.46
2023-02-03T03:41:21.350Z,14.45
2023-02-03T03:46:36.151Z,14.45
2023-02-03T03:49:03.410Z,14.43
2023-02-03T03:51:30.655Z,14.42
2023-02-03T03:56:44.953Z,14.41
2023-02-03T03:59:12.185Z,14.41
2023-02-03T04:01:39.616Z,14.39
2023-02-03T04:04:06.875Z,14.39
2023-02-03T04:06:34.062Z,14.40
2023-02-03T04:09:02.250Z,14.41
2023-02-03T04:11:48.273Z,14.40
2023-02-03T04:14:15.529Z,14.38
2023-02-03T04:16:43.342Z,14.39
2023-02-03T04:19:10.694Z,14.36
2023-02-03T04:21:37.884Z,14.37
2023-02-03T04:26:52.406Z,14.37
2023-02-03T04:29:19.650Z,14.38
2023-02-03T04:31:46.923Z,14.36
2023-02-03T04:34:14.288Z,14.35
2023-02-03T04:36:41.541Z,14.37
2023-02-03T04:39:08.760Z,14.35
2023-02-03T04:41:35.997Z,14.33
2023-02-03T04:44:03.209Z,14.34
2023-02-03T04:46:30.409Z,14.32
2023-02-03T04:51:44.984Z,14.32
2023-02-03T04:54:12.172Z,14.32
2023-02-03T04:56:39.342Z,14.33
2023-02-03T04:59:06.523Z,14.32
2023-02-03T05:01:33.705Z,14.31
2023-02-03T05:06:28.911Z,14.29
2023-02-03T05:11:45.617Z,14.30
2023-02-03T05:14:12.824Z,14.28
2023-02-03T05:16:40.269Z,14.28
2023-02-03T05:19:08.893Z,14.28
2023-02-03T05:21:36.078Z,14.28
2023-02-03T05:24:06.886Z,14.26
2023-02-03T05:26:34.461Z,14.28
2023-02-03T05:29:01.693Z,14.24
2023-02-03T05:31:28.948Z,14.25
2023-02-03T05:33:56.316Z,14.28
2023-02-03T05:36:23.532Z,14.24
2023-02-03T05:38:50.926Z,14.23
2023-02-03T05:41:39.368Z,14.22
2023-02-03T05:44:06.559Z,14.23
2023-02-03T05:46:33.750Z,14.21
2023-02-03T05:49:00.934Z,14.24
2023-02-03T05:51:28.479Z,14.22
2023-02-03T05:53:55.673Z,14.22
2023-02-03T05:56:22.920Z,14.23
2023-02-03T05:58:53.290Z,14.19
2023-02-03T06:01:20.657Z,14.20
2023-02-03T06:03:48.167Z,14.19
2023-02-03T06:06:15.732Z,14.19
2023-02-03T06:08:43.004Z,14.23
2023-02-03T06:11:10.340Z,14.19
2023-02-03T06:13:37.731Z,14.19
2023-02-03T06:16:04.970Z,14.18
2023-02-03T06:18:32.154Z,14.19
2023-02-03T06:20:59.501Z,14.20
2023-02-03T06:23:26.719Z,14.18
2023-02-03T06:25:53.943Z,14.18
2023-02-03T06:28:21.343Z,14.18
2023-02-03T06:30:48.731Z,14.17
2023-02-03T06:33:16.035Z,14.16
2023-02-03T06:35:43.246Z,14.17
2023-02-03T06:38:10.640Z,14.15
2023-02-03T06:40:37.835Z,14.16
2023-02-03T06:43:05.100Z,14.16
2023-02-03T06:45:32.517Z,14.16
2023-02-03T06:47:59.753Z,14.17
2023-02-03T06:50:27.293Z,14.13
2023-02-03T06:52:54.799Z,14.14
2023-02-03T06:55:22.894Z,14.13
2023-02-03T06:57:50.425Z,14.12
2023-02-03T07:00:19.191Z,14.13
2023-02-03T07:02:46.670Z,14.12
2023-02-03T07:05:14.000Z,14.13
2023-02-03T07:07:41.283Z,14.13
2023-02-03T07:10:08.577Z,14.13
2023-02-03T07:12:36.684Z,14.12
2023-02-03T07:15:04.096Z,14.12
2023-02-03T07:17:31.318Z,14.12
2023-02-03T07:22:25.597Z,14.12
2023-02-03T07:24:52.853Z,14.08
2023-02-03T07:27:20.382Z,14.12
2023-02-03T07:29:47.586Z,14.11
2023-02-03T07:32:14.891Z,14.11
2023-02-03T07:34:42.102Z,14.09
2023-02-03T07:39:36.472Z,14.10
2023-02-03T07:42:03.653Z,14.09
2023-02-03T07:44:31.065Z,14.11
2023-02-03T07:46:58.370Z,14.08
2023-02-03T07:49:25.605Z,14.11
2023-02-03T07:51:52.789Z,14.14
2023-02-03T07:54:19.968Z,14.14
2023-02-03T07:56:47.293Z,14.14
2023-02-03T07:59:14.504Z,14.14
2023-02-03T08:01:41.716Z,14.15
2023-02-03T08:04:09.047Z,14.14
2023-02-03T08:06:36.215Z,14.14
2023-02-03T08:09:03.398Z,14.13
2023-02-03T08:11:32.544Z,14.15
2023-02-03T08:13:59.951Z,14.14
2023-02-03T08:16:27.169Z,14.16
2023-02-03T08:18:54.409Z,14.18
2023-02-03T08:21:21.618Z,14.18
2023-02-03T08:23:48.797Z,14.17
2023-02-03T08:26:16.041Z,14.17
2023-02-03T08:28:43.335Z,14.19
2023-02-03T08:31:10.676Z,14.21
2023-02-03T08:33:37.946Z,14.19
2023-02-03T08:36:05.851Z,14.22
2023-02-03T08:38:33.105Z,14.19
2023-02-03T08:41:00.298Z,14.21
2023-02-03T08:43:27.595Z,14.23
2023-02-03T08:45:54.864Z,14.23
2023-02-03T08:48:22.095Z,14.23
2023-02-03T08:50:52.890Z,14.23
2023-02-03T08:53:20.226Z,14.22
2023-02-03T08:55:47.418Z,14.25
2023-02-03T08:58:14.615Z,14.25
2023-02-03T09:00:41.895Z,14.24
2023-02-03T09:03:09.091Z,14.25
2023-02-03T09:05:36.310Z,14.24
2023-02-03T09:08:03.506Z,14.26
2023-02-03T09:10:30.989Z,14.25
2023-02-03T09:15:45.633Z,14.25
2023-02-03T09:18:12.835Z,14.28
2023-02-03T09:20:40.093Z,14.27
2023-02-03T09:23:07.608Z,14.27
2023-02-03T09:25:34.892Z,14.27
2023-02-03T09:28:02.877Z,14.27
2023-02-03T09:30:30.626Z,14.28
2023-02-03T09:35:46.087Z,14.30
2023-02-03T09:38:13.281Z,14.32
2023-02-03T09:40:40.486Z,14.33
2023-02-03T09:43:07.712Z,14.32
2023-02-03T09:45:34.953Z,14.33
2023-02-03T09:50:49.604Z,14.33
2023-02-03T09:53:16.819Z,14.35
2023-02-03T09:55:44.047Z,14.36
2023-02-03T09:58:12.672Z,14.34
2023-02-03T10:00:39.871Z,14.36
2023-02-03T10:05:54.225Z,14.36
2023-02-03T10:08:21.405Z,14.38
2023-02-03T10:10:49.218Z,14.38
2023-02-03T10:13:16.506Z,14.38
2023-02-03T10:15:43.748Z,14.38
2023-02-03T10:18:11.039Z,14.39
2023-02-03T10:20:38.366Z,14.39
2023-02-03T10:25:32.671Z,14.39
2023-02-03T10:33:14.129Z,14.42
2023-02-03T10:35:41.409Z,14.44
2023-02-03T10:38:08.654Z,14.42
2023-02-03T10:40:35.897Z,14.42
2023-02-03T10:43:22.105Z,14.44
2023-02-03T10:48:37.256Z,14.44
2023-02-03T10:53:31.693Z,14.47
2023-02-03T10:58:26.468Z,14.48
2023-02-03T11:00:53.713Z,14.52
2023-02-03T11:03:20.986Z,14.56
2023-02-03T11:05:48.177Z,14.57
2023-02-03T11:08:15.736Z,14.63
2023-02-03T11:10:43.924Z,14.69
2023-02-03T11:15:58.343Z,14.71
2023-02-03T11:18:25.608Z,14.74
2023-02-03T11:20:52.791Z,14.77
2023-02-03T11:23:22.073Z,14.78
2023-02-03T11:25:50.725Z,14.77
2023-02-03T11:28:17.980Z,14.78
2023-02-03T11:30:45.290Z,14.81
2023-02-03T11:33:12.527Z,14.78
2023-02-03T11:35:40.546Z,14.78
2023-02-03T11:38:07.725Z,14.80
2023-02-03T11:40:38.389Z,14.79
2023-02-03T11:43:05.826Z,14.81
2023-02-03T11:45:33.059Z,14.82
2023-02-03T11:53:37.797Z,14.87
2023-02-03T11:56:12.176Z,14.87
2023-02-03T11:58:39.482Z,14.85
2023-02-03T12:03:53.809Z,14.87
2023-02-03T12:06:21.031Z,14.89
2023-02-03T12:08:48.216Z,14.92
2023-02-03T12:11:15.533Z,14.90
2023-02-03T12:13:42.872Z,14.91
2023-02-03T12:18:57.930Z,14.93
2023-02-03T12:21:25.167Z,14.97
2023-02-03T12:23:52.357Z,14.95
2023-02-03T12:26:19.628Z,14.97
2023-02-03T12:28:46.921Z,14.94
2023-02-03T12:31:14.172Z,14.93
2023-02-03T12:33:43.416Z,14.92
2023-02-03T12:36:10.778Z,14.91
2023-02-03T12:38:38.072Z,14.93
2023-02-03T12:43:52.640Z,14.92
2023-02-03T12:46:20.132Z,14.93
2023-02-03T12:48:47.452Z,14.92
2023-02-03T12:51:14.668Z,14.95
2023-02-03T12:53:41.873Z,14.96
2023-02-03T12:58:38.141Z,14.94
2023-02-03T13:01:05.432Z,14.97
2023-02-03T13:03:32.676Z,14.98
2023-02-03T13:08:47.395Z,14.98
2023-02-03T13:11:15.502Z,14.98
2023-02-03T13:13:42.760Z,14.96
2023-02-03T13:16:09.991Z,14.98
2023-02-03T13:18:37.272Z,14.95
2023-02-03T13:23:51.716Z,14.97
2023-02-03T13:26:18.945Z,14.97
2023-02-03T13:28:46.205Z,14.97
2023-02-03T13:31:13.511Z,14.93
2023-02-03T13:33:40.758Z,14.94
2023-02-03T13:38:36.933Z,14.98
2023-02-03T13:41:04.163Z,14.98
2023-02-03T13:43:38.782Z,14.99
2023-02-03T13:46:08.857Z,14.97
2023-02-03T13:48:36.487Z,14.98
2023-02-03T13:51:03.662Z,14.96
2023-02-03T13:53:32.297Z,14.94
2023-02-03T13:55:59.560Z,14.95
2023-02-03T13:58:26.807Z,14.98
2023-02-03T14:00:54.492Z,14.97
2023-02-03T14:03:21.858Z,14.95
2023-02-03T14:05:49.630Z,14.94
2023-02-03T14:08:17.074Z,14.97
2023-02-03T14:10:44.279Z,14.98
2023-02-03T14:13:11.489Z,15.01
2023-02-03T14:15:39.631Z,14.98
2023-02-03T14:18:07.257Z,14.94
2023-02-03T14:20:34.456Z,15.02
2023-02-03T14:25:29.287Z,15.19
2023-02-03T14:27:56.707Z,15.19
2023-02-03T14:30:24.015Z,15.22
2023-02-03T14:32:51.220Z,15.24
2023-02-03T14:35:18.427Z,15.29
2023-02-03T14:37:45.607Z,15.31
2023-02-03T14:40:12.954Z,15.30
2023-02-03T14:42:40.264Z,15.33
2023-02-03T14:45:07.503Z,15.33
2023-02-03T14:47:34.817Z,15.34
2023-02-03T14:52:49.191Z,15.41
2023-02-03T14:55:16.393Z,15.52
2023-02-03T15:00:32.443Z,15.59
2023-02-03T15:08:14.421Z,15.71
2023-02-03T15:10:41.952Z,15.72
2023-02-03T15:15:36.264Z,15.74
2023-02-03T15:20:52.503Z,15.79
2023-02-03T15:23:20.558Z,15.83
2023-02-03T15:25:47.741Z,15.81
2023-02-03T15:28:17.015Z,15.80
2023-02-03T15:30:45.568Z,15.83
2023-02-03T15:33:12.843Z,15.83
2023-02-03T15:35:40.023Z,15.90
2023-02-03T15:40:54.717Z,15.92
2023-02-03T15:43:22.293Z,15.97
2023-02-03T15:48:16.714Z,15.98
2023-02-03T15:50:44.083Z,15.91
2023-02-03T15:53:11.262Z,15.99
2023-02-03T15:55:38.878Z,16.02
2023-02-03T16:00:53.199Z,16.09
2023-02-03T16:03:21.483Z,16.10
2023-02-03T16:05:52.399Z,16.12
2023-02-03T16:08:19.800Z,16.09
2023-02-03T16:10:48.108Z,16.16
2023-02-03T16:13:15.280Z,16.16
2023-02-03T16:15:42.535Z,16.18
2023-02-03T16:20:37.567Z,16.18
2023-02-03T16:25:52.132Z,16.21
2023-02-03T16:28:38.117Z,16.22
2023-02-03T16:31:23.792Z,16.27
2023-02-03T16:36:55.517Z,16.32
2023-02-03T16:39:41.807Z,16.30
2023-02-03T16:42:28.795Z,16.30
2023-02-03T16:45:17.427Z,16.32
2023-02-03T16:50:59.304Z,16.29
2023-02-03T16:56:14.170Z,16.31
2023-02-03T16:58:41.406Z,16.35
2023-02-03T17:03:56.936Z,16.30
2023-02-03T17:06:25.284Z,16.36
2023-02-03T17:08:53.059Z,16.40
2023-02-03T17:11:20.286Z,16.38
2023-02-03T17:16:34.635Z,16.37
2023-02-03T17:24:16.323Z,16.34
2023-02-03T17:26:43.559Z,16.38
2023-02-03T17:29:10.805Z,16.36
2023-02-03T17:31:37.979Z,16.32
2023-02-03T17:36:32.388Z,16.45
2023-02-03T17:55:09.468Z,16.71
2023-02-03T17:57:36.661Z,16.71
2023-02-03T18:00:03.844Z,16.70
2023-02-03T18:02:31.078Z,16.71
2023-02-03T18:04:58.302Z,16.75
2023-02-03T18:07:25.475Z,16.77
2023-02-03T18:09:55.220Z,16.69
2023-02-03T18:12:22.721Z,16.79
2023-02-03T18:14:49.953Z,16.87
2023-02-03T18:20:04.376Z,17.00
2023-02-03T18:22:31.633Z,17.11
2023-02-03T18:24:59.145Z,17.23
2023-02-03T18:27:26.424Z,17.22
2023-02-03T18:29:53.598Z,17.27
2023-02-03T18:32:20.916Z,17.20
2023-02-03T18:34:48.116Z,17.27
2023-02-03T18:39:42.564Z,17.26
2023-02-03T18:42:09.798Z,17.19
2023-02-03T18:44:37.054Z,17.21
2023-02-03T18:52:42.111Z,17.20
2023-02-03T18:55:09.295Z,17.33
2023-02-03T18:57:36.493Z,17.24
2023-02-03T19:00:03.727Z,17.24
2023-02-03T19:02:31.071Z,17.41
2023-02-03T19:04:58.321Z,17.57
2023-02-03T19:07:25.538Z,17.57
2023-02-03T19:09:52.774Z,17.46
2023-02-03T19:12:19.995Z,17.41
2023-02-03T19:14:47.282Z,17.40
2023-02-03T19:17:14.559Z,17.43
2023-02-03T19:19:41.751Z,17.47
2023-02-03T19:22:08.974Z,17.44
2023-02-03T19:24:36.275Z,17.45
2023-02-03T19:27:03.465Z,17.41
2023-02-03T19:29:30.689Z,17.54
2023-02-03T19:34:45.102Z,17.38
2023-02-03T19:39:59.440Z,17.49
2023-02-03T19:42:26.626Z,17.51
2023-02-03T19:44:53.964Z,17.41
2023-02-03T19:47:21.183Z,17.48
2023-02-03T19:49:48.551Z,17.51
2023-02-03T19:52:15.904Z,17.47
2023-02-03T19:54:43.093Z,17.52
2023-02-03T19:57:10.316Z,17.60
2023-02-03T19:59:37.524Z,17.69
2023-02-03T20:02:13.782Z,17.70
2023-02-03T20:04:41.793Z,17.73
2023-02-03T20:07:09.153Z,17.70
2023-02-03T20:09:36.444Z,17.64
2023-02-03T20:12:03.672Z,17.64
2023-02-03T20:14:32.638Z,17.78
2023-02-03T20:16:59.852Z,17.79
2023-02-03T20:19:27.539Z,17.72
2023-02-03T20:21:58.658Z,17.83
2023-02-03T20:24:30.704Z,17.82
2023-02-03T20:29:45.223Z,17.70
2023-02-03T20:34:39.649Z,17.80
2023-02-03T20:37:10.825Z,17.92
2023-02-03T20:39:38.032Z,17.84
2023-02-03T20:42:07.592Z,17.92
2023-02-03T20:44:42.292Z,18.02
2023-02-03T20:47:22.219Z,17.94
2023-02-03T20:49:49.885Z,17.95
2023-02-03T20:52:17.125Z,17.83
2023-02-03T20:54:44.340Z,17.79
2023-02-03T20:57:11.560Z,17.93
2023-02-03T20:59:38.845Z,17.85
2023-02-03T21:02:11.049Z,17.90
2023-02-03T21:04:56.953Z,17.88
2023-02-03T21:07:24.192Z,17.84
2023-02-03T21:09:51.412Z,17.74
2023-02-03T21:12:18.619Z,17.84
2023-02-03T21:14:45.908Z,17.87
2023-02-03T21:17:13.113Z,17.76
2023-02-03T21:19:41.444Z,17.85
2023-02-03T21:22:08.690Z,17.82
2023-02-03T21:24:38.158Z,17.78
2023-02-03T21:27:05.815Z,17.89
2023-02-03T21:29:33.696Z,17.94
2023-02-03T21:32:00.942Z,17.98
2023-02-03T21:34:28.629Z,18.02
2023-02-03T21:36:55.991Z,17.89
2023-02-03T21:39:23.217Z,17.86
2023-02-03T21:41:50.431Z,17.97
2023-02-03T21:44:17.669Z,17.99
2023-02-03T21:46:44.888Z,18.07
2023-02-03T21:49:12.106Z,18.04
2023-02-03T21:51:39.472Z,18.03
2023-02-03T21:56:54.245Z,17.91
2023-02-03T21:59:21.708Z,17.99
2023-02-03T22:01:48.922Z,17.94
2023-02-03T22:04:16.176Z,17.93
2023-02-03T22:06:44.307Z,17.99
2023-02-03T22:09:11.660Z,17.99
2023-02-03T22:11:38.853Z,18.03
2023-02-03T22:14:06.093Z,18.00
2023-02-03T22:16:33.372Z,18.02
2023-02-03T22:19:00.583Z,17.92
2023-02-03T22:21:27.871Z,17.88
2023-02-03T22:23:55.103Z,17.93
2023-02-03T22:26:22.467Z,17.96
2023-02-03T22:28:49.798Z,17.97
2023-02-03T22:31:17.171Z,17.88
2023-02-03T22:33:44.438Z,17.97
2023-02-03T22:36:11.714Z,18.00
2023-02-03T22:38:38.983Z,17.86
2023-02-03T22:41:06.390Z,17.85
2023-02-03T22:43:33.605Z,17.86
2023-02-03T22:46:01.853Z,18.02
2023-02-03T22:48:29.458Z,17.84
2023-02-03T22:50:58.252Z,17.91
2023-02-03T22:53:25.463Z,17.91
2023-02-03T22:55:52.760Z,17.90
2023-02-03T22:58:20.065Z,17.89
2023-02-03T23:00:47.386Z,17.88
2023-02-03T23:03:14.653Z,17.56
2023-02-03T23:05:41.938Z,17.69
2023-02-03T23:08:09.872Z,17.73
2023-02-03T23:10:37.066Z,17.83
2023-02-03T23:13:04.419Z,17.76
2023-02-03T23:15:31.694Z,17.73
2023-02-03T23:17:59.116Z,17.68
2023-02-03T23:20:26.429Z,17.71
2023-02-03T23:22:53.634Z,17.68
2023-02-03T23:25:20.904Z,17.77
2023-02-03T23:27:48.177Z,17.93
2023-02-03T23:30:15.405Z,17.94
2023-02-03T23:32:42.660Z,17.91
2023-02-03T23:35:28.668Z,17.94
2023-02-03T23:37:55.841Z,18.02
2023-02-03T23:40:23.110Z,17.98
2023-02-03T23:42:50.324Z,18.01
2023-02-03T23:45:17.688Z,18.03
2023-02-03T23:47:44.893Z,18.00
2023-02-03T23:50:12.104Z,17.94
2023-02-03T23:52:39.312Z,17.99
2023-02-03T23:55:06.496Z,17.92
2023-02-03T23:57:33.726Z,17.70
